createdAt,value
2019-01-09T00:01:37.081Z,14.13
2019-01-09T00:04:06.893Z,13.73
2019-01-09T00:06:36.620Z,14.67
2019-01-09T00:09:08.260Z,5.77
2019-01-09T00:11:38.060Z,9.60
2019-01-09T00:14:07.806Z,8.77
2019-01-09T00:16:37.615Z,11.27
2019-01-09T00:19:07.284Z,8.87
2019-01-09T00:21:37.137Z,10.70
2019-01-09T00:24:06.933Z,11.03
2019-01-09T00:26:36.623Z,13.37
2019-01-09T00:29:06.543Z,10.73
2019-01-09T00:31:36.307Z,10.30
2019-01-09T00:34:06.182Z,17.87
2019-01-09T00:36:36.003Z,18.57
2019-01-09T00:39:07.790Z,18.40
2019-01-09T00:41:37.553Z,16.50
2019-01-09T00:44:07.369Z,14.13
2019-01-09T00:46:37.204Z,21.23
2019-01-09T00:49:07.083Z,17.00
2019-01-09T00:51:37.378Z,16.40
2019-01-09T00:54:07.249Z,24.10
2019-01-09T00:56:37.104Z,23.57
2019-01-09T00:59:06.963Z,19.30
2019-01-09T01:01:36.861Z,22.10
2019-01-09T01:04:35.370Z,20.53
2019-01-09T01:07:47.524Z,20.40
2019-01-09T01:10:50.286Z,20.10
2019-01-09T01:13:30.436Z,25.70
2019-01-09T01:16:53.359Z,21.67
2019-01-09T01:19:54.683Z,18.83
2019-01-09T01:22:31.760Z,19.13
2019-01-09T01:25:27.071Z,23.87
2019-01-09T01:28:19.313Z,17.70
2019-01-09T01:31:15.700Z,23.57
2019-01-09T01:34:04.828Z,20.17
2019-01-09T01:37:32.243Z,24.33
2019-01-09T01:40:18.802Z,16.87
2019-01-09T01:43:10.932Z,17.20
2019-01-09T01:46:02.591Z,20.13
2019-01-09T01:48:51.542Z,15.43
2019-01-09T01:51:51.186Z,17.53
2019-01-09T01:54:52.421Z,13.67
2019-01-09T01:57:51.977Z,18.40
2019-01-09T02:00:37.922Z,22.10
2019-01-09T02:03:36.364Z,20.60
2019-01-09T02:06:39.285Z,17.57
2019-01-09T02:09:31.252Z,19.50
2019-01-09T02:12:05.562Z,16.37
2019-01-09T02:14:51.802Z,21.53
2019-01-09T02:17:35.059Z,19.23
2019-01-09T02:20:15.031Z,22.43
2019-01-09T02:22:55.218Z,21.00
2019-01-09T02:25:41.372Z,13.57
2019-01-09T02:28:30.044Z,14.43
2019-01-09T02:31:13.007Z,19.20
2019-01-09T02:33:42.691Z,17.53
2019-01-09T02:36:13.659Z,17.93
2019-01-09T02:38:43.627Z,11.50
2019-01-09T02:41:13.308Z,12.30
2019-01-09T02:43:43.096Z,12.53
2019-01-09T02:46:12.779Z,14.70
2019-01-09T02:48:42.442Z,13.20
2019-01-09T02:51:12.151Z,12.87
2019-01-09T02:53:41.849Z,15.10
2019-01-09T02:56:11.501Z,15.27
2019-01-09T02:58:41.184Z,19.80
2019-01-09T03:01:10.846Z,15.23
2019-01-09T03:03:40.543Z,14.47
2019-01-09T03:06:10.285Z,16.77
2019-01-09T03:08:40.024Z,16.70
2019-01-09T03:11:09.770Z,17.73
2019-01-09T03:13:39.537Z,16.53
2019-01-09T03:16:09.287Z,13.47
2019-01-09T03:18:39.337Z,13.70
2019-01-09T03:21:09.054Z,15.97
2019-01-09T03:23:38.733Z,13.43
2019-01-09T03:26:08.612Z,12.77
2019-01-09T03:28:38.345Z,11.57
2019-01-09T03:31:08.082Z,12.60
2019-01-09T03:33:37.866Z,12.80
2019-01-09T03:36:07.654Z,10.80
2019-01-09T03:38:37.527Z,13.57
2019-01-09T03:41:07.336Z,13.47
2019-01-09T03:43:37.326Z,11.97
2019-01-09T03:46:07.226Z,11.10
2019-01-09T03:48:36.864Z,14.37
2019-01-09T03:51:06.545Z,9.90
2019-01-09T03:53:36.222Z,11.40
2019-01-09T03:56:05.996Z,12.70
2019-01-09T03:58:35.721Z,10.17
2019-01-09T04:01:05.510Z,17.57
2019-01-09T04:03:35.188Z,11.03
2019-01-09T04:06:05.058Z,11.20
2019-01-09T04:08:34.732Z,10.67
2019-01-09T04:11:04.458Z,7.63
2019-01-09T04:13:34.219Z,15.43
2019-01-09T04:16:03.973Z,14.47
2019-01-09T04:18:33.655Z,5.57
2019-01-09T04:21:03.301Z,11.03
2019-01-09T04:23:33.073Z,12.23
2019-01-09T04:26:02.888Z,8.27
2019-01-09T04:28:32.587Z,5.80
2019-01-09T04:31:02.221Z,9.63
2019-01-09T04:33:31.923Z,14.13
2019-01-09T04:36:01.635Z,8.50
2019-01-09T04:38:31.392Z,7.27
2019-01-09T04:41:01.057Z,11.23
2019-01-09T04:43:30.708Z,11.30
2019-01-09T04:46:00.465Z,13.70
2019-01-09T04:48:30.110Z,10.80
2019-01-09T04:50:59.801Z,12.60
2019-01-09T04:53:29.480Z,19.87
2019-01-09T04:55:59.152Z,15.13
2019-01-09T04:58:28.826Z,18.87
2019-01-09T05:00:58.498Z,11.17
2019-01-09T05:03:28.158Z,15.47
2019-01-09T05:05:58.842Z,11.90
2019-01-09T05:08:28.504Z,13.17
2019-01-09T05:10:58.203Z,16.40
2019-01-09T05:13:27.879Z,17.30
2019-01-09T05:15:57.582Z,19.53
2019-01-09T05:18:27.338Z,12.93
2019-01-09T05:20:57.011Z,22.00
2019-01-09T05:23:26.689Z,13.57
2019-01-09T05:25:56.346Z,16.13
2019-01-09T05:28:26.008Z,21.80
2019-01-09T05:30:55.686Z,26.23
2019-01-09T05:33:25.416Z,17.13
2019-01-09T05:35:55.070Z,13.93
2019-01-09T05:38:24.827Z,12.87
2019-01-09T05:40:54.472Z,14.40
2019-01-09T05:43:24.153Z,16.03
2019-01-09T05:45:53.815Z,15.57
2019-01-09T05:48:23.581Z,16.10
2019-01-09T05:50:53.262Z,20.73
2019-01-09T05:53:22.916Z,11.83
2019-01-09T05:55:52.717Z,14.37
2019-01-09T05:58:22.372Z,14.20
2019-01-09T06:00:52.207Z,14.87
2019-01-09T06:03:21.897Z,14.87
2019-01-09T06:05:51.593Z,10.97
2019-01-09T06:08:21.381Z,15.70
2019-01-09T06:10:51.093Z,17.47
2019-01-09T06:13:20.741Z,20.90
2019-01-09T06:15:50.416Z,15.67
2019-01-09T06:18:20.102Z,16.47
2019-01-09T06:20:49.786Z,14.07
2019-01-09T06:23:19.460Z,15.67
2019-01-09T06:25:49.194Z,14.83
2019-01-09T06:28:18.845Z,15.37
2019-01-09T06:30:48.550Z,12.87
2019-01-09T06:33:18.186Z,9.80
2019-01-09T06:35:49.694Z,21.07
2019-01-09T06:38:19.402Z,14.93
2019-01-09T06:40:49.078Z,13.03
2019-01-09T06:43:18.819Z,17.70
2019-01-09T06:45:48.469Z,25.87
2019-01-09T06:48:18.240Z,20.50
2019-01-09T06:50:48.042Z,18.30
2019-01-09T06:53:17.762Z,21.53
2019-01-09T06:55:47.497Z,24.57
2019-01-09T06:58:17.288Z,22.67
2019-01-09T07:01:14.547Z,21.23
2019-01-09T07:03:48.801Z,19.97
2019-01-09T07:06:18.570Z,16.97
2019-01-09T07:08:49.005Z,20.07
2019-01-09T07:11:18.754Z,16.93
2019-01-09T07:13:58.109Z,18.73
2019-01-09T07:16:27.111Z,20.33
2019-01-09T07:19:12.268Z,20.90
2019-01-09T07:21:50.115Z,19.37
2019-01-09T07:24:21.573Z,19.63
2019-01-09T07:27:02.584Z,30.87
2019-01-09T07:40:30.270Z,26.43
2019-01-09T07:43:00.018Z,21.73
2019-01-09T07:45:29.700Z,20.53
2019-01-09T07:47:59.676Z,22.57
2019-01-09T07:50:29.406Z,19.23
2019-01-09T07:52:59.070Z,19.33
2019-01-09T07:55:28.823Z,14.37
2019-01-09T07:57:58.559Z,18.93
2019-01-09T08:02:43.156Z,12.17
2019-01-09T08:05:12.953Z,23.07
2019-01-09T08:07:42.596Z,17.13
2019-01-09T08:10:12.327Z,15.47
2019-01-09T08:12:42.092Z,26.53
2019-01-09T08:15:11.953Z,18.20
2019-01-09T08:19:16.777Z,18.33
2019-01-09T08:21:46.552Z,17.70
2019-01-09T08:24:16.361Z,16.33
2019-01-09T08:26:46.153Z,14.77
2019-01-09T08:29:15.922Z,19.43
2019-01-09T08:31:45.825Z,22.03
2019-01-09T08:34:15.638Z,23.57
2019-01-09T08:36:45.312Z,17.97
2019-01-09T08:39:15.008Z,24.87
2019-01-09T08:41:45.049Z,15.80
2019-01-09T08:44:14.803Z,24.60
2019-01-09T08:46:44.667Z,22.20
2019-01-09T08:49:14.433Z,14.27
2019-01-09T08:51:44.127Z,15.87
2019-01-09T08:54:13.836Z,20.47
2019-01-09T08:56:43.485Z,17.37
2019-01-09T08:59:13.184Z,19.47
2019-01-09T09:01:42.926Z,18.40
2019-01-09T09:04:12.653Z,22.23
2019-01-09T09:06:42.576Z,19.20
2019-01-09T09:09:12.455Z,23.93
2019-01-09T09:11:42.286Z,16.20
2019-01-09T09:14:11.937Z,14.73
2019-01-09T09:16:41.742Z,17.60
2019-01-09T09:19:11.539Z,17.80
2019-01-09T09:21:41.720Z,7.70
2019-01-09T09:24:11.567Z,16.53
2019-01-09T09:26:41.343Z,25.47
2019-01-09T09:29:11.114Z,16.97
2019-01-09T09:31:40.928Z,14.93
2019-01-09T09:34:10.708Z,12.47
2019-01-09T09:36:40.433Z,21.37
2019-01-09T09:39:11.041Z,12.70
2019-01-09T09:41:40.705Z,13.17
2019-01-09T09:44:10.459Z,13.83
2019-01-09T09:46:40.210Z,13.27
2019-01-09T09:49:10.066Z,11.50
2019-01-09T09:51:39.806Z,15.83
2019-01-09T09:54:09.506Z,14.80
2019-01-09T09:56:39.610Z,15.23
2019-01-09T09:59:09.332Z,16.73
2019-01-09T10:01:41.987Z,20.80
2019-01-09T10:04:11.699Z,13.63
2019-01-09T10:06:41.564Z,17.40
2019-01-09T10:09:11.301Z,14.83
2019-01-09T10:11:41.673Z,19.70
2019-01-09T10:14:11.382Z,20.73
2019-01-09T10:16:41.153Z,16.27
2019-01-09T10:19:11.778Z,20.70
2019-01-09T10:21:41.845Z,15.63
2019-01-09T10:24:11.579Z,19.60
2019-01-09T10:26:41.332Z,21.03
2019-01-09T10:29:11.016Z,24.27
2019-01-09T10:31:40.719Z,24.60
2019-01-09T10:34:10.440Z,21.10
2019-01-09T10:36:40.120Z,22.20
2019-01-09T10:39:10.429Z,16.60
2019-01-09T10:41:40.161Z,17.43
2019-01-09T10:44:18.612Z,19.20
2019-01-09T10:46:41.391Z,18.33
2019-01-09T10:49:11.094Z,15.10
2019-01-09T10:51:40.737Z,12.00
2019-01-09T10:54:10.468Z,13.13
2019-01-09T10:56:40.630Z,12.73
2019-01-09T10:59:11.357Z,14.00
2019-01-09T11:01:44.283Z,9.57
2019-01-09T11:04:14.035Z,19.90
2019-01-09T11:06:43.754Z,14.27
2019-01-09T11:09:13.474Z,11.53
2019-01-09T11:11:43.223Z,15.23
2019-01-09T11:14:12.895Z,15.87
2019-01-09T11:16:42.575Z,13.27
2019-01-09T11:19:12.397Z,20.63
2019-01-09T11:21:42.111Z,14.80
2019-01-09T11:24:11.749Z,4.63
2019-01-09T11:26:41.597Z,13.93
2019-01-09T11:29:11.333Z,11.60
2019-01-09T11:31:41.135Z,8.77
2019-01-09T11:36:50.998Z,14.27
2019-01-09T11:39:20.684Z,12.40
2019-01-09T11:41:50.530Z,11.53
2019-01-09T11:44:20.181Z,10.10
2019-01-09T11:46:49.978Z,7.70
2019-01-09T11:49:19.721Z,14.40
2019-01-09T11:51:49.562Z,11.27
2019-01-09T11:54:19.219Z,11.53
2019-01-09T11:56:48.979Z,14.57
2019-01-09T11:59:18.631Z,11.10
2019-01-09T12:01:48.462Z,6.67
2019-01-09T12:04:18.201Z,14.83
2019-01-09T12:06:48.033Z,16.53
2019-01-09T12:09:18.885Z,14.00
2019-01-09T12:11:48.710Z,12.33
2019-01-09T12:14:18.431Z,15.80
2019-01-09T12:16:48.219Z,10.97
2019-01-09T12:19:17.890Z,15.57
2019-01-09T12:21:48.758Z,8.47
2019-01-09T12:24:18.504Z,8.27
2019-01-09T12:26:49.963Z,10.57
2019-01-09T12:29:19.933Z,11.93
2019-01-09T12:31:49.636Z,10.90
2019-01-09T12:34:19.346Z,10.23
2019-01-09T12:36:48.999Z,10.43
2019-01-09T12:39:18.828Z,7.57
2019-01-09T12:41:48.538Z,10.40
2019-01-09T12:44:18.309Z,10.47
2019-01-09T12:46:47.980Z,9.10
2019-01-09T12:49:17.782Z,10.07
2019-01-09T12:51:47.651Z,10.77
2019-01-09T12:54:17.367Z,10.13
2019-01-09T12:56:47.048Z,9.27
2019-01-09T12:59:21.734Z,8.07
2019-01-09T13:01:48.342Z,6.70
2019-01-09T13:04:18.136Z,10.50
2019-01-09T13:06:47.987Z,14.77
2019-01-09T13:09:22.411Z,10.50
2019-01-09T13:11:49.164Z,20.53
2019-01-09T13:14:18.818Z,15.07
2019-01-09T13:16:48.490Z,15.37
2019-01-09T13:19:18.198Z,9.27
2019-01-09T13:21:48.046Z,7.77
2019-01-09T13:24:17.817Z,10.50
2019-01-09T13:26:47.546Z,12.03
2019-01-09T13:29:17.342Z,11.97
2019-01-09T13:31:47.054Z,10.13
2019-01-09T13:34:16.807Z,6.00
2019-01-09T13:36:46.503Z,10.03
2019-01-09T13:39:16.522Z,10.57
2019-01-09T13:41:46.306Z,7.90
2019-01-09T13:44:16.020Z,7.37
2019-01-09T13:46:45.861Z,7.63
2019-01-09T13:49:15.593Z,5.33
2019-01-09T13:51:45.346Z,7.33
2019-01-09T13:54:15.306Z,9.30
2019-01-09T13:56:45.150Z,11.67
2019-01-09T13:59:14.949Z,7.57
2019-01-09T14:01:44.605Z,11.73
2019-01-09T14:04:14.327Z,12.50
2019-01-09T14:06:43.997Z,10.73
2019-01-09T14:09:13.920Z,7.67
2019-01-09T14:11:43.568Z,9.47
2019-01-09T14:14:13.254Z,11.33
2019-01-09T14:16:42.921Z,11.53
2019-01-09T14:19:13.221Z,10.27
2019-01-09T14:21:43.033Z,9.20
2019-01-09T14:24:12.853Z,12.97
2019-01-09T14:26:42.968Z,11.57
2019-01-09T14:29:12.923Z,10.77
2019-01-09T14:31:42.623Z,6.40
2019-01-09T14:34:12.344Z,9.47
2019-01-09T14:36:42.122Z,8.53
2019-01-09T14:39:11.841Z,13.27
2019-01-09T14:41:44.436Z,8.40
2019-01-09T14:44:14.273Z,14.93
2019-01-09T14:46:44.025Z,9.03
2019-01-09T14:49:13.737Z,6.03
2019-01-09T14:51:43.747Z,5.73
2019-01-09T14:54:13.860Z,10.23
2019-01-09T14:56:43.579Z,7.13
2019-01-09T14:59:13.270Z,8.93
2019-01-09T15:01:43.280Z,7.87
2019-01-09T15:04:13.040Z,12.60
2019-01-09T15:06:42.797Z,9.10
2019-01-09T15:09:12.563Z,9.63
2019-01-09T15:11:42.293Z,10.13
2019-01-09T15:14:12.278Z,9.73
2019-01-09T15:16:41.970Z,7.13
2019-01-09T15:19:11.785Z,7.23
2019-01-09T15:21:41.685Z,10.07
2019-01-09T15:24:11.407Z,11.83
2019-01-09T15:26:41.189Z,10.00
2019-01-09T15:29:10.920Z,10.33
2019-01-09T15:31:40.752Z,9.00
2019-01-09T15:34:10.594Z,5.77
2019-01-09T15:36:40.507Z,7.80
2019-01-09T15:39:10.305Z,8.93
2019-01-09T15:41:40.134Z,9.73
2019-01-09T15:44:09.934Z,10.30
2019-01-09T15:46:39.641Z,13.20
2019-01-09T15:49:09.351Z,17.10
2019-01-09T15:51:40.734Z,11.43
2019-01-09T15:54:10.473Z,9.33
2019-01-09T15:56:40.177Z,16.37
2019-01-09T15:59:09.952Z,11.67
2019-01-09T16:01:39.657Z,13.20
2019-01-09T16:04:09.388Z,10.77
2019-01-09T16:06:39.182Z,8.47
2019-01-09T16:09:10.008Z,12.63
2019-01-09T16:11:39.902Z,15.60
2019-01-09T16:14:09.737Z,7.87
2019-01-09T16:16:39.428Z,7.53
2019-01-09T16:19:09.272Z,13.43
2019-01-09T16:21:40.290Z,11.20
2019-01-09T16:24:12.692Z,13.97
2019-01-09T16:26:42.726Z,14.97
2019-01-09T16:29:12.474Z,13.03
2019-01-09T16:31:42.227Z,11.60
2019-01-09T16:34:11.962Z,8.80
2019-01-09T16:36:41.716Z,7.23
2019-01-09T16:39:11.680Z,9.00
2019-01-09T16:41:41.434Z,12.30
2019-01-09T16:44:11.119Z,11.33
2019-01-09T16:46:40.877Z,13.97
2019-01-09T16:49:10.629Z,13.60
2019-01-09T16:51:40.305Z,8.40
2019-01-09T16:54:10.068Z,5.60
2019-01-09T16:56:39.753Z,16.97
2019-01-09T16:59:09.655Z,13.87
2019-01-09T17:01:42.410Z,9.07
2019-01-09T17:04:12.150Z,10.73
2019-01-09T17:06:41.832Z,12.63
2019-01-09T17:09:11.577Z,6.20
2019-01-09T17:11:41.341Z,11.67
2019-01-09T17:14:11.076Z,10.43
2019-01-09T17:16:40.821Z,11.73
2019-01-09T17:19:10.938Z,12.37
2019-01-09T17:21:40.896Z,12.87
2019-01-09T17:24:10.558Z,8.10
2019-01-09T17:26:40.259Z,13.80
2019-01-09T17:29:10.181Z,10.97
2019-01-09T17:31:40.065Z,11.33
2019-01-09T17:34:09.750Z,10.47
2019-01-09T17:36:39.598Z,14.17
2019-01-09T17:39:09.574Z,13.13
2019-01-09T17:41:40.922Z,9.43
2019-01-09T17:44:10.669Z,9.43
2019-01-09T17:46:40.320Z,14.70
2019-01-09T17:49:10.081Z,14.33
2019-01-09T17:51:39.789Z,14.20
2019-01-09T17:54:09.548Z,11.70
2019-01-09T17:56:40.641Z,11.07
2019-01-09T17:59:10.664Z,13.03
2019-01-09T18:01:40.391Z,13.00
2019-01-09T18:04:10.603Z,19.53
2019-01-09T18:06:40.421Z,11.40
2019-01-09T18:09:10.317Z,13.57
2019-01-09T18:11:40.106Z,7.87
2019-01-09T18:14:10.044Z,11.03
2019-01-09T18:16:39.830Z,13.80
2019-01-09T18:19:09.544Z,12.13
2019-01-09T18:21:40.933Z,10.27
2019-01-09T18:24:10.680Z,10.67
2019-01-09T18:26:40.602Z,12.53
2019-01-09T18:29:10.300Z,8.60
2019-01-09T18:31:50.424Z,15.33
2019-01-09T18:34:28.021Z,12.13
2019-01-09T18:37:13.160Z,11.40
2019-01-09T18:39:58.335Z,11.83
2019-01-09T18:42:42.768Z,9.17
2019-01-09T18:45:47.681Z,8.63
2019-01-09T18:48:47.231Z,9.33
2019-01-09T18:51:41.850Z,11.83
2019-01-09T18:54:11.787Z,11.23
2019-01-09T18:56:41.575Z,10.37
2019-01-09T18:59:11.741Z,11.80
2019-01-09T19:01:41.487Z,13.47
2019-01-09T19:04:11.428Z,10.53
2019-01-09T19:06:41.167Z,14.00
2019-01-09T19:09:11.870Z,14.47
2019-01-09T19:11:50.315Z,6.43
2019-01-09T19:14:13.173Z,11.27
2019-01-09T19:16:43.061Z,15.30
2019-01-09T19:19:12.907Z,13.30
2019-01-09T19:21:43.181Z,10.50
2019-01-09T19:24:13.007Z,16.37
2019-01-09T19:26:42.849Z,18.03
2019-01-09T19:29:13.124Z,16.00
2019-01-09T19:31:43.088Z,17.77
2019-01-09T19:34:13.028Z,9.70
2019-01-09T19:36:42.944Z,9.37
2019-01-09T19:39:12.872Z,11.53
2019-01-09T19:41:42.694Z,13.10
2019-01-09T19:44:12.384Z,14.13
2019-01-09T19:46:42.161Z,11.43
2019-01-09T19:49:12.034Z,13.13
2019-01-09T19:51:43.371Z,9.27
2019-01-09T19:54:13.139Z,13.00
2019-01-09T19:56:42.968Z,13.30
2019-01-09T19:59:12.910Z,18.63
2019-01-09T20:01:42.757Z,15.73
2019-01-09T20:04:12.852Z,10.57
2019-01-09T20:06:42.626Z,17.90
2019-01-09T20:09:12.579Z,15.37
2019-01-09T20:11:42.745Z,11.37
2019-01-09T20:14:12.711Z,13.03
2019-01-09T20:16:42.813Z,14.73
2019-01-09T20:19:12.611Z,11.07
2019-01-09T20:21:42.762Z,11.37
2019-01-09T20:24:12.558Z,19.10
2019-01-09T20:26:42.405Z,9.07
2019-01-09T20:29:12.275Z,15.93
2019-01-09T20:31:42.127Z,14.80
2019-01-09T20:34:12.140Z,16.93
2019-01-09T20:36:41.949Z,14.60
2019-01-09T20:39:12.049Z,15.10
2019-01-09T20:41:41.918Z,13.57
2019-01-09T20:44:11.839Z,10.53
2019-01-09T20:46:41.667Z,12.97
2019-01-09T20:49:11.489Z,15.97
2019-01-09T20:51:41.506Z,18.90
2019-01-09T20:54:11.345Z,10.77
2019-01-09T20:56:41.118Z,9.57
2019-01-09T20:59:11.078Z,9.97
2019-01-09T21:01:40.910Z,12.60
2019-01-09T21:04:11.039Z,10.47
2019-01-09T21:06:40.937Z,12.13
2019-01-09T21:09:11.338Z,15.17
2019-01-09T21:11:44.582Z,14.47
2019-01-09T21:14:12.610Z,13.57
2019-01-09T21:16:42.681Z,8.70
2019-01-09T21:19:12.528Z,13.53
2019-01-09T21:21:42.392Z,14.10
2019-01-09T21:24:12.094Z,15.13
2019-01-09T21:26:41.912Z,14.40
2019-01-09T21:29:11.576Z,12.17
2019-01-09T21:31:41.449Z,8.53
2019-01-09T21:34:11.272Z,10.23
2019-01-09T21:36:41.016Z,14.27
2019-01-09T21:39:11.158Z,11.83
2019-01-09T21:41:40.898Z,20.83
2019-01-09T21:44:15.808Z,11.60
2019-01-09T21:46:46.275Z,15.93
2019-01-09T21:49:13.813Z,13.10
2019-01-09T21:51:43.504Z,14.13
2019-01-09T21:54:13.386Z,13.58
2019-01-09T21:56:43.112Z,13.13
2019-01-09T21:59:12.811Z,15.10
2019-01-09T22:01:42.573Z,15.77
2019-01-09T22:04:12.451Z,12.90
2019-01-09T22:06:42.244Z,18.17
2019-01-09T22:09:11.975Z,16.33
2019-01-09T22:11:42.031Z,11.03
2019-01-09T22:14:11.981Z,10.08
2019-01-09T22:16:41.785Z,16.97
2019-01-09T22:19:12.296Z,12.60
2019-01-09T22:21:42.239Z,14.70
2019-01-09T22:24:11.962Z,11.18
2019-01-09T22:26:41.748Z,8.70
2019-01-09T22:29:11.607Z,10.98
2019-01-09T22:31:49.967Z,8.83
2019-01-09T22:34:20.440Z,12.87
2019-01-09T22:36:50.351Z,13.13
2019-01-09T22:39:20.141Z,13.50
2019-01-09T22:41:49.909Z,15.30
2019-01-09T22:44:19.781Z,15.43
2019-01-09T22:46:49.645Z,10.82
2019-01-09T22:49:19.406Z,11.83
2019-01-09T22:51:49.100Z,14.67
2019-01-09T22:54:18.893Z,11.43
2019-01-09T22:56:48.843Z,14.60
2019-01-09T22:59:18.749Z,13.77
2019-01-09T23:01:48.595Z,14.03
2019-01-09T23:04:18.460Z,13.63
2019-01-09T23:06:48.322Z,14.07
2019-01-09T23:09:18.074Z,14.95
2019-01-09T23:11:47.759Z,16.37
2019-01-09T23:14:17.505Z,15.90
2019-01-09T23:16:47.586Z,20.17
2019-01-09T23:19:17.502Z,14.25
2019-01-09T23:21:47.366Z,14.70
2019-01-09T23:24:17.184Z,15.00
2019-01-09T23:26:46.979Z,12.60
2019-01-09T23:29:16.882Z,8.65
2019-01-09T23:31:46.845Z,10.88
2019-01-09T23:34:16.668Z,14.73
2019-01-09T23:36:46.531Z,15.63
2019-01-09T23:39:16.215Z,14.38
2019-01-09T23:41:45.902Z,13.13
2019-01-09T23:44:15.854Z,20.75
2019-01-09T23:46:45.679Z,14.07
2019-01-09T23:49:15.358Z,16.65
2019-01-09T23:51:45.074Z,14.68
2019-01-09T23:54:14.828Z,17.25
2019-01-09T23:56:44.545Z,11.60
2019-01-09T23:59:14.624Z,16.17
